^^
Paulen-Weather Station Historical Data
Daily Summary for May 02, 2022 Units:  Metric    English   Both
Daily Weekly Monthly Yearly Custom
  High: Low: Average:
Temperature: 13 °C 5 °C 9.2 °C
Dew Point: 10 °C 1 °C 5.1 °C
Humidity: 90% 54% 75%
Wind Speed: 26km/h 2km/h 11km/h
Wind Gust: 20km/h - -
Wind- - SE
Pressure: 1020.42 hPa 1012.6 hPa -
Precipitation: 0 mm    
Historical Graphs
 
 
Tabular Data for May 02, 2022
Time Temperature Dew Point Pressure Wind Wind Speed Wind Gust Humidity Rainfall Rate (Hourly) solar
00:04 9 °C 4 °C 1020.42 hPa NNW 4 km/h 2 km/h 73% 0 mm 0 W/m2
00:09 9 °C 4 °C 1020.39 hPa N 4 km/h 3 km/h 73% 0 mm 0 W/m2
00:14 9 °C 4 °C 1020.32 hPa NW 5 km/h 2 km/h 73% 0 mm 0 W/m2
00:19 9 °C 4 °C 1020.29 hPa NW 2 km/h 1 km/h 73% 0 mm 0 W/m2
00:24 8 °C 4 °C 1020.22 hPa NW 2 km/h   73% 0 mm 0 W/m2
00:29 8 °C 4 °C 1020.18 hPa N 2 km/h 2 km/h 73% 0 mm 0 W/m2
00:34 8 °C 4 °C 1020.22 hPa NNE 4 km/h 1 km/h 73% 0 mm 0 W/m2
00:39 8 °C 4 °C 1020.15 hPa NNW 3 km/h 2 km/h 74% 0 mm 0 W/m2
00:44 8 °C 4 °C 1020.15 hPa NNE 5 km/h 2 km/h 74% 0 mm 0 W/m2
00:49 8 °C 4 °C 1020.08 hPa NNE 4 km/h 2 km/h 75% 0 mm 0 W/m2
00:54 8 °C 4 °C 1020.05 hPa NE 6 km/h 5 km/h 75% 0 mm 0 W/m2
00:59 8 °C 4 °C 1020.08 hPa NE 6 km/h 5 km/h 75% 0 mm 0 W/m2
01:04 8 °C 4 °C 1020.05 hPa NE 6 km/h 4 km/h 75% 0 mm 0 W/m2
01:09 8 °C 4 °C 1020.01 hPa NNE 5 km/h 4 km/h 75% 0 mm 0 W/m2
01:14 8 °C 4 °C 1019.98 hPa N 6 km/h 3 km/h 75% 0 mm 0 W/m2
01:19 8 °C 4 °C 1019.95 hPa NNE 5 km/h 3 km/h 75% 0 mm 0 W/m2
01:24 8 °C 4 °C 1019.91 hPa NE 5 km/h 3 km/h 75% 0 mm 0 W/m2
01:29 8 °C 4 °C 1019.88 hPa ENE 3 km/h 1 km/h 75% 0 mm 0 W/m2
01:34 8 °C 4 °C 1019.78 hPa NE 5 km/h 3 km/h 75% 0 mm 0 W/m2
01:39 8 °C 3 °C 1019.71 hPa NNE 5 km/h 2 km/h 75% 0 mm 0 W/m2
01:44 8 °C 3 °C 1019.68 hPa NE 7 km/h 5 km/h 75% 0 mm 0 W/m2
01:49 7 °C 3 °C 1019.57 hPa NNE 4 km/h 2 km/h 75% 0 mm 0 W/m2
01:54 7 °C 3 °C 1019.57 hPa NE 5 km/h 2 km/h 75% 0 mm 0 W/m2
01:59 7 °C 3 °C 1019.51 hPa NE 5 km/h 2 km/h 75% 0 mm 0 W/m2
02:04 7 °C 3 °C 1019.4 hPa NNE 6 km/h 5 km/h 75% 0 mm 0 W/m2
02:09 7 °C 3 °C 1019.37 hPa NE 10 km/h 7 km/h 75% 0 mm 0 W/m2
02:14 7 °C 3 °C 1019.34 hPa NNE 9 km/h 5 km/h 75% 0 mm 0 W/m2
02:19 7 °C 3 °C 1019.3 hPa NNE 12 km/h 7 km/h 74% 0 mm 0 W/m2
02:24 7 °C 3 °C 1019.3 hPa NNW 7 km/h 6 km/h 73% 0 mm 0 W/m2
02:29 7 °C 2 °C 1019.27 hPa NNW 4 km/h 3 km/h 73% 0 mm 0 W/m2
02:34 7 °C 2 °C 1019.17 hPa NNW 7 km/h 5 km/h 73% 0 mm 0 W/m2
02:39 7 °C 2 °C 1019.13 hPa NNW 7 km/h 5 km/h 73% 0 mm 0 W/m2
02:44 7 °C 2 °C 1019.1 hPa NNE 9 km/h 7 km/h 73% 0 mm 0 W/m2
02:49 7 °C 2 °C 1019.07 hPa N 11 km/h 5 km/h 73% 0 mm 0 W/m2
02:54 7 °C 2 °C 1018.96 hPa N 11 km/h 8 km/h 72% 0 mm 0 W/m2
02:59 7 °C 2 °C 1018.93 hPa NNW 11 km/h 8 km/h 72% 0 mm 0 W/m2
03:04 7 °C 2 °C 1018.93 hPa NNW 12 km/h 7 km/h 72% 0 mm 0 W/m2
03:09 7 °C 2 °C 1018.9 hPa NNW 10 km/h 5 km/h 73% 0 mm 0 W/m2
03:14 6 °C 2 °C 1018.86 hPa NNW 9 km/h 5 km/h 74% 0 mm 0 W/m2
03:19 6 °C 2 °C 1018.83 hPa NNW 8 km/h 5 km/h 74% 0 mm 0 W/m2
03:24 6 °C 2 °C 1018.8 hPa NNW 6 km/h 3 km/h 75% 0 mm 0 W/m2
03:29 6 °C 2 °C 1018.73 hPa NNW 7 km/h 5 km/h 75% 0 mm 0 W/m2
03:34 6 °C 2 °C 1018.66 hPa NNW 7 km/h 6 km/h 75% 0 mm 0 W/m2
03:39 6 °C 2 °C 1018.59 hPa NNW 9 km/h 6 km/h 76% 0 mm 0 W/m2
03:44 6 °C 2 °C 1018.56 hPa NNW 9 km/h 5 km/h 76% 0 mm 0 W/m2
03:49 6 °C 2 °C 1018.56 hPa NW 5 km/h 3 km/h 76% 0 mm 0 W/m2
03:54 6 °C 2 °C 1018.56 hPa NNW 6 km/h 4 km/h 76% 0 mm 0 W/m2
03:59 6 °C 2 °C 1018.56 hPa NNW 6 km/h 5 km/h 77% 0 mm 0 W/m2
04:04 6 °C 2 °C 1018.56 hPa NNW 7 km/h 6 km/h 77% 0 mm 0 W/m2
04:09 6 °C 2 °C 1018.52 hPa NNW 5 km/h 3 km/h 77% 0 mm 0 W/m2
04:14 6 °C 2 °C 1018.52 hPa NW 5 km/h 3 km/h 77% 0 mm 0 W/m2
04:19 6 °C 2 °C 1018.49 hPa NW 4 km/h 2 km/h 77% 0 mm 0 W/m2
04:24 6 °C 2 °C 1018.42 hPa NW 4 km/h 1 km/h 77% 0 mm 0 W/m2
04:29 6 °C 2 °C 1018.39 hPa NW 3 km/h 2 km/h 77% 0 mm 0 W/m2
04:34 6 °C 2 °C 1018.32 hPa NW 4 km/h 2 km/h 77% 0 mm 0 W/m2
04:39 6 °C 2 °C 1018.32 hPa NW 2 km/h   77% 0 mm 0 W/m2
04:44 6 °C 2 °C 1018.32 hPa NW 2 km/h 3 km/h 77% 0 mm 0 W/m2
04:49 6 °C 2 °C 1018.25 hPa NNW 4 km/h 2 km/h 77% 0 mm 0 W/m2
04:54 6 °C 2 °C 1018.29 hPa NNW 5 km/h 3 km/h 78% 0 mm 0 W/m2
04:59 6 °C 2 °C 1018.29 hPa NNW 3 km/h 1 km/h 78% 0 mm 0 W/m2
05:04 5 °C 2 °C 1018.35 hPa NNW 4 km/h 3 km/h 78% 0 mm 0 W/m2
05:09 5 °C 2 °C 1018.42 hPa NNW 4 km/h 2 km/h 79% 0 mm 0 W/m2
05:14 5 °C 2 °C 1018.42 hPa NNW 6 km/h 4 km/h 79% 0 mm 0 W/m2
05:19 5 °C 2 °C 1018.42 hPa NNW 2 km/h 3 km/h 79% 0 mm 0 W/m2
05:24 5 °C 2 °C 1018.35 hPa NNW 6 km/h 3 km/h 79% 0 mm 0 W/m2
05:29 5 °C 2 °C 1018.35 hPa N 5 km/h 3 km/h 79% 0 mm 0 W/m2
05:34 5 °C 2 °C 1018.35 hPa NNW 5 km/h 3 km/h 79% 0 mm 5 W/m2
05:39 5 °C 2 °C 1018.35 hPa NNW 4 km/h 3 km/h 78% 0 mm 7 W/m2
05:44 5 °C 2 °C 1018.29 hPa NNW 4 km/h 2 km/h 78% 0 mm 11 W/m2
05:49 5 °C 2 °C 1018.25 hPa N 6 km/h 3 km/h 77% 0 mm 12 W/m2
05:54 5 °C 2 °C 1018.25 hPa N 5 km/h 3 km/h 76% 0 mm 16 W/m2
05:59 5 °C 2 °C 1018.25 hPa NNW 7 km/h 4 km/h 76% 0 mm 19 W/m2
06:04 5 °C 1 °C 1018.25 hPa N 4 km/h 3 km/h 75% 0 mm 33 W/m2
06:09 5 °C 1 °C 1018.25 hPa N 6 km/h 3 km/h 74% 0 mm 40 W/m2
06:14 6 °C 1 °C 1018.22 hPa N 6 km/h 4 km/h 74% 0 mm 54 W/m2
06:19 6 °C 1 °C 1018.22 hPa N 4 km/h 3 km/h 74% 0 mm 60 W/m2
06:24 6 °C 2 °C 1018.22 hPa N 4 km/h 2 km/h 74% 0 mm 70 W/m2
06:29 6 °C 2 °C 1018.22 hPa NNW 7 km/h 5 km/h 74% 0 mm 83 W/m2
06:34 6 °C 2 °C 1018.22 hPa NNW 6 km/h 4 km/h 74% 0 mm 91 W/m2
06:39 6 °C 2 °C 1018.22 hPa NNW 6 km/h 5 km/h 73% 0 mm 98 W/m2
06:44 6 °C 2 °C 1018.22 hPa N 6 km/h 4 km/h 72% 0 mm 109 W/m2
06:49 7 °C 2 °C 1018.29 hPa N 7 km/h 5 km/h 71% 0 mm 120 W/m2
06:54 7 °C 2 °C 1018.32 hPa NNW 6 km/h 5 km/h 70% 0 mm 128 W/m2
06:59 7 °C 2 °C 1018.29 hPa NNW 3 km/h 3 km/h 69% 0 mm 141 W/m2
07:04 7 °C 2 °C 1018.29 hPa N 3 km/h 3 km/h 68% 0 mm 148 W/m2
07:09 7 °C 2 °C 1018.25 hPa N 5 km/h 2 km/h 66% 0 mm 158 W/m2
07:14 8 °C 2 °C 1018.22 hPa NW 6 km/h 4 km/h 65% 0 mm 211 W/m2
07:19 8 °C 2 °C 1018.25 hPa NNW 5 km/h 4 km/h 65% 0 mm 216 W/m2
07:24 8 °C 1 °C 1018.22 hPa NE 8 km/h 5 km/h 63% 0 mm 207 W/m2
07:29 8 °C 1 °C 1018.22 hPa NNE 7 km/h 5 km/h 62% 0 mm 104 W/m2
07:34 8 °C 1 °C 1018.22 hPa N 7 km/h 4 km/h 62% 0 mm 104 W/m2
07:39 8 °C 1 °C 1018.19 hPa NNW 6 km/h 4 km/h 62% 0 mm 105 W/m2
07:44 8 °C 1 °C 1018.15 hPa N 7 km/h 4 km/h 63% 0 mm 97 W/m2
07:49 8 °C 1 °C 1018.19 hPa N 4 km/h 3 km/h 62% 0 mm 77 W/m2
07:54 8 °C 1 °C 1018.12 hPa NNE 8 km/h 7 km/h 62% 0 mm 70 W/m2
07:59 8 °C 1 °C 1018.12 hPa N 6 km/h 3 km/h 61% 0 mm 70 W/m2
08:04 8 °C 1 °C 1018.12 hPa NNE 8 km/h 5 km/h 61% 0 mm 72 W/m2
08:09 8 °C 1 °C 1018.12 hPa NNE 8 km/h 6 km/h 60% 0 mm 72 W/m2
08:14 8 °C 1 °C 1018.12 hPa NNE 7 km/h 4 km/h 60% 0 mm 63 W/m2
08:19 8 °C 1 °C 1018.15 hPa N 11 km/h 6 km/h 60% 0 mm 53 W/m2
08:24 8 °C 1 °C 1018.12 hPa NNE 11 km/h 8 km/h 60% 0 mm 54 W/m2
08:29 8 °C 1 °C 1018.08 hPa N 11 km/h 9 km/h 60% 0 mm 56 W/m2
08:34 8 °C 1 °C 1018.08 hPa NNW 10 km/h 6 km/h 60% 0 mm 56 W/m2
08:39 8 °C 1 °C 1018.08 hPa NNE 7 km/h 6 km/h 59% 0 mm 63 W/m2
08:44 8 °C 1 °C 1018.05 hPa N 9 km/h 6 km/h 59% 0 mm 76 W/m2
08:49 8 °C 1 °C 1018.12 hPa N 10 km/h 7 km/h 59% 0 mm 76 W/m2
08:54 8 °C 1 °C 1018.12 hPa NNW 7 km/h 6 km/h 60% 0 mm 70 W/m2
08:59 8 °C 1 °C 1018.15 hPa NNE 7 km/h 4 km/h 61% 0 mm 65 W/m2
09:04 8 °C 1 °C 1018.15 hPa NNE 9 km/h 8 km/h 61% 0 mm 67 W/m2
09:09 8 °C 1 °C 1018.12 hPa N 8 km/h 9 km/h 61% 0 mm 70 W/m2
09:14 8 °C 1 °C 1018.02 hPa NNW 5 km/h 4 km/h 61% 0 mm 72 W/m2
09:19 8 °C 1 °C 1017.91 hPa NNW 7 km/h 4 km/h 61% 0 mm 86 W/m2
09:24 8 °C 1 °C 1018.05 hPa N 7 km/h 5 km/h 59% 0 mm 90 W/m2
09:29 8 °C 1 °C 1018.05 hPa NNE 5 km/h 5 km/h 60% 0 mm 459 W/m2
09:34 9 °C 2 °C 1017.98 hPa NNE 8 km/h 7 km/h 59% 0 mm 475 W/m2
09:39 10 °C 2 °C 1017.98 hPa N 11 km/h 8 km/h 57% 0 mm 515 W/m2
09:44 10 °C 2 °C 1017.98 hPa N 16 km/h 12 km/h 55% 0 mm 520 W/m2
09:49 10 °C 2 °C 1017.95 hPa NNE 15 km/h 10 km/h 54% 0 mm 397 W/m2
09:54 10 °C 2 °C 1017.88 hPa N 17 km/h 9 km/h 55% 0 mm 406 W/m2
09:59 10 °C 2 °C 1017.85 hPa NNE 15 km/h 11 km/h 56% 0 mm 422 W/m2
10:04 11 °C 3 °C 1017.78 hPa NNE 16 km/h 10 km/h 58% 0 mm 582 W/m2
10:09 11 °C 3 °C 1017.64 hPa NNE 19 km/h 12 km/h 59% 0 mm 582 W/m2
10:14 11 °C 3 °C 1017.64 hPa N 20 km/h 14 km/h 61% 0 mm 575 W/m2
10:19 11 °C 4 °C 1017.51 hPa NNE 13 km/h 7 km/h 62% 0 mm 584 W/m2
10:24 11 °C 4 °C 1017.44 hPa N 18 km/h 9 km/h 63% 0 mm 605 W/m2
10:29 11 °C 5 °C 1017.51 hPa NNE 13 km/h 8 km/h 64% 0 mm 561 W/m2
10:34 11 °C 5 °C 1017.51 hPa N 16 km/h 12 km/h 66% 0 mm 374 W/m2
10:39 11 °C 5 °C 1017.51 hPa NNE 18 km/h 11 km/h 68% 0 mm 399 W/m2
10:44 11 °C 6 °C 1017.44 hPa NNE 14 km/h 10 km/h 69% 0 mm 399 W/m2
10:49 11 °C 6 °C 1017.44 hPa NNE 10 km/h 6 km/h 70% 0 mm 341 W/m2
10:54 11 °C 6 °C 1017.41 hPa NNE 15 km/h 10 km/h 70% 0 mm 364 W/m2
10:59 11 °C 6 °C 1017.37 hPa NNE 17 km/h 11 km/h 71% 0 mm 364 W/m2
11:04 11 °C 6 °C 1017.34 hPa NNE 18 km/h 10 km/h 71% 0 mm 501 W/m2
11:09 11 °C 6 °C 1017.34 hPa NNE 16 km/h 10 km/h 72% 0 mm 534 W/m2
11:14 12 °C 7 °C 1017.24 hPa NNE 16 km/h 11 km/h 72% 0 mm 485 W/m2
11:19 11 °C 7 °C 1017.17 hPa N 22 km/h 15 km/h 72% 0 mm 364 W/m2
11:24 11 °C 7 °C 1017.1 hPa NNW 24 km/h 16 km/h 73% 0 mm 322 W/m2
11:29 11 °C 7 °C 1017.14 hPa N 21 km/h 14 km/h 74% 0 mm 392 W/m2
11:34 11 °C 7 °C 1017.1 hPa N 22 km/h 15 km/h 75% 0 mm 362 W/m2
11:39 11 °C 7 °C 1017.07 hPa NNE 19 km/h 13 km/h 75% 0 mm 831 W/m2
11:44 12 °C 7 °C 1017.07 hPa N 16 km/h 12 km/h 75% 0 mm 891 W/m2
11:49 12 °C 8 °C 1017.07 hPa NE 14 km/h 13 km/h 73% 0 mm 800 W/m2
11:54 12 °C 7 °C 1017.03 hPa NE 21 km/h 17 km/h 73% 0 mm 789 W/m2
11:59 12 °C 8 °C 1017.07 hPa NNE 18 km/h 12 km/h 74% 0 mm 898 W/m2
12:04 12 °C 8 °C 1017.03 hPa NNE 17 km/h 9 km/h 74% 0 mm 898 W/m2
12:09 13 °C 8 °C 1017 hPa NNE 15 km/h 10 km/h 74% 0 mm 902 W/m2
12:14 13 °C 8 °C 1016.93 hPa NNE 21 km/h 15 km/h 73% 0 mm 902 W/m2
12:19 13 °C 8 °C 1016.97 hPa NNE 12 km/h 11 km/h 74% 0 mm 819 W/m2
12:24 13 °C 8 °C 1016.97 hPa NNE 18 km/h 12 km/h 74% 0 mm 700 W/m2
12:29 12 °C 8 °C 1016.93 hPa N 19 km/h 13 km/h 74% 0 mm 664 W/m2
12:34 12 °C 8 °C 1016.9 hPa NNE 16 km/h 10 km/h 76% 0 mm 527 W/m2
12:39 12 °C 8 °C 1016.9 hPa NE 22 km/h 17 km/h 77% 0 mm 584 W/m2
12:44 11 °C 8 °C 1016.9 hPa NE 19 km/h 15 km/h 79% 0 mm 584 W/m2
12:49 11 °C 8 °C 1016.83 hPa NE 18 km/h 14 km/h 81% 0 mm 519 W/m2
12:54 11 °C 8 °C 1016.76 hPa ENE 26 km/h 20 km/h 82% 0 mm 432 W/m2
12:59 11 °C 8 °C 1016.76 hPa NE 22 km/h 18 km/h 83% 0 mm 432 W/m2
13:04 11 °C 8 °C 1016.76 hPa NNE 16 km/h 9 km/h 84% 0 mm 352 W/m2
13:09 11 °C 8 °C 1016.73 hPa NE 16 km/h 11 km/h 84% 0 mm 279 W/m2
13:14 11 °C 8 °C 1016.63 hPa NE 14 km/h 10 km/h 85% 0 mm 410 W/m2
13:19 11 °C 8 °C 1016.59 hPa NNE 15 km/h 10 km/h 85% 0 mm 320 W/m2
13:24 11 °C 8 °C 1016.53 hPa NE 17 km/h 14 km/h 86% 0 mm 265 W/m2
13:29 11 °C 8 °C 1016.42 hPa NNE 18 km/h 14 km/h 87% 0 mm 265 W/m2
13:34 10 °C 8 °C 1016.36 hPa NNE 11 km/h 14 km/h 87% 0 mm 193 W/m2
13:39 11 °C 9 °C 1016.26 hPa NNE 13 km/h 7 km/h 87% 0 mm 272 W/m2
13:44 11 °C 9 °C 1016.19 hPa NNE 13 km/h 9 km/h 87% 0 mm 285 W/m2
13:49 11 °C 9 °C 1016.15 hPa NNE 14 km/h 11 km/h 87% 0 mm 408 W/m2
13:54 11 °C 9 °C 1016.09 hPa N 20 km/h 12 km/h 87% 0 mm 385 W/m2
13:59 11 °C 9 °C 1016.09 hPa N 16 km/h 12 km/h 86% 0 mm 329 W/m2
14:04 11 °C 9 °C 1015.98 hPa N 15 km/h 11 km/h 86% 0 mm 320 W/m2
14:09 11 °C 9 °C 1015.95 hPa NNE 17 km/h 14 km/h 86% 0 mm 200 W/m2
14:14 11 °C 9 °C 1015.98 hPa NNE 18 km/h 12 km/h 86% 0 mm 190 W/m2
14:19 11 °C 9 °C 1015.98 hPa NNE 19 km/h 14 km/h 87% 0 mm 178 W/m2
14:24 10 °C 9 °C 1015.98 hPa NNE 22 km/h 16 km/h 87% 0 mm 162 W/m2
14:29 10 °C 9 °C 1015.98 hPa NE 18 km/h 13 km/h 88% 0 mm 171 W/m2
14:34 10 °C 9 °C 1015.95 hPa NNE 17 km/h 10 km/h 89% 0 mm 364 W/m2
14:39 11 °C 9 °C 1015.85 hPa NNE 13 km/h 11 km/h 90% 0 mm 497 W/m2
14:44 11 °C 9 °C 1015.82 hPa N 13 km/h 9 km/h 90% 0 mm 527 W/m2
14:49 11 °C 10 °C 1015.68 hPa NNE 16 km/h 11 km/h 88% 0 mm 548 W/m2
14:54 12 °C 10 °C 1015.61 hPa N 9 km/h 6 km/h 87% 0 mm 548 W/m2
14:59 12 °C 10 °C 1015.65 hPa N 13 km/h 11 km/h 86% 0 mm 394 W/m2
15:04 12 °C 10 °C 1015.51 hPa NNE 16 km/h 11 km/h 86% 0 mm 346 W/m2
15:09 12 °C 10 °C 1015.41 hPa NNE 10 km/h 7 km/h 86% 0 mm 490 W/m2
15:14 12 °C 10 °C 1015.31 hPa N 15 km/h 10 km/h 85% 0 mm 506 W/m2
15:19 12 °C 10 °C 1015.27 hPa N 13 km/h 5 km/h 85% 0 mm 547 W/m2
15:24 12 °C 10 °C 1015.17 hPa N 17 km/h 15 km/h 83% 0 mm 490 W/m2
15:29 12 °C 10 °C 1015.07 hPa N 19 km/h 12 km/h 83% 0 mm 475 W/m2
15:34 12 °C 10 °C 1015 hPa N 17 km/h 12 km/h 83% 0 mm 475 W/m2
15:39 12 °C 10 °C 1014.97 hPa NNE 17 km/h 14 km/h 83% 0 mm 429 W/m2
15:44 12 °C 9 °C 1014.9 hPa N 26 km/h 13 km/h 83% 0 mm 490 W/m2
15:49 12 °C 9 °C 1014.83 hPa N 20 km/h 13 km/h 83% 0 mm 490 W/m2
15:54 12 °C 10 °C 1014.77 hPa NNE 14 km/h 10 km/h 82% 0 mm 657 W/m2
15:59 12 °C 9 °C 1014.7 hPa N 15 km/h 8 km/h 82% 0 mm 657 W/m2
16:04 12 °C 9 °C 1014.63 hPa NNE 15 km/h 7 km/h 82% 0 mm 413 W/m2
16:09 12 °C 9 °C 1014.6 hPa NE 18 km/h 14 km/h 82% 0 mm 364 W/m2
16:14 12 °C 9 °C 1014.56 hPa NNE 16 km/h 10 km/h 83% 0 mm 364 W/m2
16:19 12 °C 9 °C 1014.49 hPa NE 12 km/h 10 km/h 83% 0 mm 279 W/m2
16:24 12 °C 9 °C 1014.43 hPa NE 18 km/h 13 km/h 84% 0 mm 279 W/m2
16:29 12 °C 9 °C 1014.33 hPa NNE 13 km/h 9 km/h 84% 0 mm 269 W/m2
16:34 12 °C 9 °C 1014.19 hPa NNE 13 km/h 9 km/h 84% 0 mm 315 W/m2
16:39 12 °C 9 °C 1014.19 hPa NNE 16 km/h 11 km/h 84% 0 mm 360 W/m2
16:44 12 °C 10 °C 1014.09 hPa NNE 13 km/h 6 km/h 84% 0 mm 374 W/m2
16:49 12 °C 10 °C 1014.05 hPa NNE 15 km/h 11 km/h 83% 0 mm 459 W/m2
16:54 12 °C 10 °C 1013.95 hPa NE 15 km/h 13 km/h 83% 0 mm 411 W/m2
16:59 12 °C 10 °C 1013.88 hPa NE 14 km/h 14 km/h 83% 0 mm 373 W/m2
17:04 12 °C 9 °C 1013.78 hPa NNE 19 km/h 16 km/h 83% 0 mm 318 W/m2
17:09 12 °C 9 °C 1013.68 hPa NE 16 km/h 14 km/h 84% 0 mm 315 W/m2
17:14 12 °C 9 °C 1013.65 hPa NNE 17 km/h 14 km/h 84% 0 mm 563 W/m2
17:19 12 °C 10 °C 1013.55 hPa NE 16 km/h 10 km/h 85% 0 mm 497 W/m2
17:24 12 °C 10 °C 1013.51 hPa NNE 13 km/h 10 km/h 84% 0 mm 283 W/m2
17:29 12 °C 9 °C 1013.48 hPa NNE 18 km/h 13 km/h 84% 0 mm 309 W/m2
17:34 12 °C 9 °C 1013.38 hPa NE 20 km/h 14 km/h 84% 0 mm 199 W/m2
17:39 11 °C 9 °C 1013.24 hPa NE 16 km/h 12 km/h 85% 0 mm 134 W/m2
17:44 11 °C 9 °C 1013.14 hPa NE 16 km/h 11 km/h 85% 0 mm 527 W/m2
17:49 12 °C 9 °C 1013.11 hPa NE 15 km/h 11 km/h 85% 0 mm 527 W/m2
17:54 12 °C 10 °C 1013.04 hPa NE 12 km/h 10 km/h 84% 0 mm 439 W/m2
17:59 12 °C 10 °C 1013.04 hPa NNE 11 km/h 8 km/h 83% 0 mm 397 W/m2
18:04 12 °C 9 °C 1013.04 hPa NE 14 km/h 9 km/h 83% 0 mm 424 W/m2
18:09 12 °C 10 °C 1012.97 hPa N 10 km/h 6 km/h 83% 0 mm 508 W/m2
18:14 13 °C 10 °C 1012.97 hPa N 8 km/h 5 km/h 82% 0 mm 508 W/m2
18:19 13 °C 10 °C 1012.87 hPa N 11 km/h 7 km/h 81% 0 mm 403 W/m2
18:24 13 °C 10 °C 1012.87 hPa NE 16 km/h 10 km/h 80% 0 mm 323 W/m2
18:29 12 °C 9 °C 1012.8 hPa NNE 18 km/h 13 km/h 81% 0 mm 188 W/m2
18:34 12 °C 9 °C 1012.8 hPa NNE 14 km/h 9 km/h 82% 0 mm 369 W/m2
18:39 12 °C 9 °C 1012.73 hPa NE 14 km/h 10 km/h 83% 0 mm 369 W/m2
18:44 12 °C 9 °C 1012.63 hPa NE 14 km/h 11 km/h 83% 0 mm 316 W/m2
18:49 12 °C 9 °C 1012.67 hPa NNE 15 km/h 11 km/h 83% 0 mm 315 W/m2
18:54 12 °C 9 °C 1012.6 hPa NNE 10 km/h 8 km/h 83% 0 mm 295 W/m2
Compliments of Weather Underground - 2 mb